Time;durP1;ratioP1;P1;durP2;ratioP2;P2;SDS_P1;SDS_P2;PMS_P1;PMS_P2;Temp;Humidity;BMP_temperature;BMP_pressure;BME280_temperature;BME280_humidity;BME280_pressure;Samples;Min_cycle;Max_cycle;Signal;HPM_P1;HPM_P2
2022/07/29 00:01:29;;;;;;;1.53;1.27;;;19.00;99.90;;;;;;5031745;28;20218;-73
2022/07/29 00:03:55;;;;;;;2.23;1.20;;;19.10;99.90;;;;;;5032897;28;20171;-73
2022/07/29 00:06:20;;;;;;;2.70;1.33;;;19.10;99.90;;;;;;5031405;28;20203;-73
2022/07/29 00:08:46;;;;;;;2.10;1.30;;;19.10;99.90;;;;;;5031758;28;20549;-73
2022/07/29 00:11:12;;;;;;;1.30;1.13;;;19.00;99.90;;;;;;5031655;28;20226;-73
2022/07/29 00:13:37;;;;;;;1.63;1.23;;;19.10;99.90;;;;;;5047079;28;20167;-73
2022/07/29 00:16:03;;;;;;;1.07;0.90;;;19.00;99.90;;;;;;5050670;28;20216;-73
2022/07/29 00:18:29;;;;;;;2.10;1.50;;;19.10;99.90;;;;;;5051651;28;20248;-73
2022/07/29 00:20:54;;;;;;;2.47;1.60;;;19.00;99.90;;;;;;5051588;28;20925;-72
2022/07/29 00:23:20;;;;;;;2.00;1.40;;;19.10;99.90;;;;;;5051604;28;20170;-72
2022/07/29 00:25:45;;;;;;;3.57;1.37;;;19.00;99.90;;;;;;5049186;28;20167;-72
2022/07/29 00:28:11;;;;;;;1.00;0.90;;;19.10;99.90;;;;;;5031561;28;20195;-73
2022/07/29 00:30:36;;;;;;;2.47;1.30;;;19.10;99.90;;;;;;5031507;28;20184;-73
2022/07/29 00:33:02;;;;;;;2.27;1.27;;;19.10;99.90;;;;;;5043749;28;20175;-73
2022/07/29 00:35:43;;;;;;;1.70;1.47;;;19.10;99.90;;;;;;5051166;28;20643;-73
2022/07/29 00:38:09;;;;;;;2.00;1.43;;;19.10;99.90;;;;;;5046003;28;20206;-73
2022/07/29 00:40:34;;;;;;;1.60;1.33;;;19.10;99.90;;;;;;5031304;28;20954;-72
2022/07/29 00:43:01;;;;;;;1.30;1.20;;;19.10;99.90;;;;;;5031452;28;20182;-73
2022/07/29 00:45:27;;;;;;;3.83;1.57;;;19.10;99.90;;;;;;5031189;28;20172;-73
2022/07/29 00:47:52;;;;;;;1.50;1.30;;;19.10;99.90;;;;;;5031445;28;20633;-72
2022/07/29 00:50:18;;;;;;;8.00;1.27;;;19.10;99.90;;;;;;5043551;28;20597;-73
2022/07/29 00:52:44;;;;;;;2.80;0.90;;;19.10;99.90;;;;;;5051228;28;20187;-73
2022/07/29 00:55:12;;;;;;;1.30;1.10;;;19.10;99.90;;;;;;5050938;28;20163;-73
2022/07/29 00:57:39;;;;;;;1.70;1.00;;;19.10;99.90;;;;;;5051211;28;20195;-73
2022/07/29 01:00:08;;;;;;;1.73;1.63;;;19.10;99.90;;;;;;5041078;28;20441;-73
2022/07/29 01:02:34;;;;;;;1.90;1.50;;;19.10;99.90;;;;;;5050262;28;20556;-73
2022/07/29 01:05:00;;;;;;;1.67;1.23;;;19.10;99.90;;;;;;5049891;28;20425;-73
2022/07/29 01:07:27;;;;;;;3.00;1.47;;;19.10;99.90;;;;;;5034733;28;20195;-72
2022/07/29 01:09:55;;;;;;;1.43;1.07;;;19.00;99.90;;;;;;5034627;28;20784;-73
2022/07/29 01:12:25;;;;;;;1.60;1.50;;;19.00;99.90;;;;;;5046037;28;20965;-73
2022/07/29 01:14:51;;;;;;;1.47;1.13;;;19.00;99.90;;;;;;5054345;28;20398;-72
2022/07/29 01:17:29;;;;;;;1.87;1.37;;;19.00;99.90;;;;;;5054358;28;20412;-71
2022/07/29 01:20:31;;;;;;;1.30;1.00;;;19.00;99.90;;;;;;5054489;28;20519;-71
2022/07/29 01:22:57;;;;;;;1.50;1.27;;;18.90;99.90;;;;;;5054147;28;20789;-71
2022/07/29 01:25:25;;;;;;;1.77;1.17;;;18.90;99.90;;;;;;5034112;28;20406;-71
2022/07/29 01:27:59;;;;;;;1.30;1.20;;;18.80;99.90;;;;;;5043763;28;20668;-72
2022/07/29 01:30:26;;;;;;;2.30;1.33;;;18.80;99.90;;;;;;5054177;28;20507;-71
2022/07/29 01:32:58;;;;;;;1.20;0.87;;;18.80;99.90;;;;;;5054285;28;20555;-74
2022/07/29 01:35:30;;;;;;;2.00;1.57;;;18.80;99.90;;;;;;5042910;28;20468;-75
2022/07/29 01:38:17;;;;;;;2.00;1.50;;;18.70;99.90;;;;;;5054358;28;20898;-73
2022/07/29 01:40:44;;;;;;;1.83;1.30;;;18.70;99.90;;;;;;5053764;28;20437;-72
2022/07/29 01:43:16;;;;;;;2.63;1.13;;;18.70;99.90;;;;;;5054057;28;20498;-71
2022/07/29 01:45:46;;;;;;;1.60;1.10;;;18.70;99.90;;;;;;5052463;28;20421;-71
2022/07/29 01:48:17;;;;;;;1.60;1.40;;;18.60;99.90;;;;;;5044521;28;20449;-71
2022/07/29 01:50:49;;;;;;;1.83;1.47;;;18.60;99.90;;;;;;5034012;28;20422;-72
2022/07/29 01:53:24;;;;;;;1.40;1.27;;;18.60;99.90;;;;;;5033884;28;20418;-71
2022/07/29 01:55:51;;;;;;;1.80;1.47;;;18.50;99.90;;;;;;5052898;28;20449;-71
2022/07/29 01:58:18;;;;;;;2.80;1.20;;;18.50;99.90;;;;;;5044010;28;20809;-71
2022/07/29 02:00:45;;;;;;;1.40;1.30;;;18.50;99.90;;;;;;5033717;28;20503;-72
2022/07/29 02:03:12;;;;;;;1.40;0.87;;;18.40;99.90;;;;;;5033751;28;20406;-71
2022/07/29 02:05:40;;;;;;;1.40;1.20;;;18.40;99.90;;;;;;5033446;28;20839;-71
2022/07/29 02:08:08;;;;;;;2.30;1.30;;;18.40;99.90;;;;;;5033532;28;20951;-73
2022/07/29 02:10:35;;;;;;;2.90;1.40;;;18.30;99.90;;;;;;5045173;28;20440;-72
2022/07/29 02:13:02;;;;;;;2.37;1.33;;;18.30;99.90;;;;;;5052332;28;20409;-72
2022/07/29 02:15:31;;;;;;;2.90;1.10;;;18.30;99.90;;;;;;5053012;28;20409;-71
2022/07/29 02:18:07;;;;;;;1.10;0.83;;;18.30;99.90;;;;;;5053369;28;20409;-71
2022/07/29 02:20:34;;;;;;;2.00;1.33;;;18.30;99.90;;;;;;5053313;28;20417;-71
2022/07/29 02:23:01;;;;;;;1.63;1.50;;;18.30;99.90;;;;;;5037327;28;20422;-73
2022/07/29 02:25:28;;;;;;;3.03;1.50;;;18.30;99.90;;;;;;5033017;28;20418;-72
2022/07/29 02:27:55;;;;;;;1.20;1.03;;;18.30;99.90;;;;;;5033259;28;20450;-72
2022/07/29 02:30:22;;;;;;;1.60;1.30;;;18.30;99.90;;;;;;5033231;28;20509;-73
2022/07/29 02:32:48;;;;;;;1.30;1.20;;;18.30;99.90;;;;;;5033178;28;20401;-72
2022/07/29 02:35:15;;;;;;;2.97;2.00;;;18.20;99.90;;;;;;5050064;28;20427;-71
2022/07/29 02:37:44;;;;;;;1.70;1.13;;;18.30;99.90;;;;;;5052992;28;20409;-71
2022/07/29 02:40:14;;;;;;;1.80;1.33;;;18.20;99.90;;;;;;5052871;28;20467;-71
2022/07/29 02:42:42;;;;;;;2.70;1.40;;;18.30;99.90;;;;;;5052338;28;20428;-71
2022/07/29 02:45:08;;;;;;;5.80;2.00;;;18.20;99.90;;;;;;5051599;28;20406;-71
2022/07/29 02:47:39;;;;;;;1.80;1.10;;;18.20;99.90;;;;;;5033909;28;20489;-71
2022/07/29 02:50:19;;;;;;;1.50;1.40;;;18.20;99.90;;;;;;5032948;28;20430;-71
2022/07/29 02:52:52;;;;;;;3.00;1.10;;;18.20;99.90;;;;;;5032633;28;20442;-72
2022/07/29 02:55:39;;;;;;;1.60;1.17;;;18.10;99.90;;;;;;5031374;28;20414;-71
2022/07/29 02:58:15;;;;;;;2.97;1.33;;;18.10;99.90;;;;;;5039590;28;20451;-73
2022/07/29 03:00:42;;;;;;;4.07;1.60;;;18.10;99.90;;;;;;5052177;28;20460;-73
2022/07/29 03:03:12;;;;;;;3.87;1.20;;;18.00;99.90;;;;;;5052802;28;20405;-72
2022/07/29 03:05:39;;;;;;;3.40;1.83;;;18.00;99.90;;;;;;5052265;28;20767;-73
2022/07/29 03:08:06;;;;;;;1.67;1.53;;;18.00;99.90;;;;;;5052287;28;20449;-73
2022/07/29 03:10:33;;;;;;;2.37;1.27;;;18.00;99.90;;;;;;5038100;28;20442;-71
2022/07/29 03:13:00;;;;;;;2.00;1.33;;;18.00;99.90;;;;;;5032450;28;20499;-73
2022/07/29 03:15:27;;;;;;;1.87;1.47;;;18.00;99.90;;;;;;5032164;28;20422;-73
2022/07/29 03:17:53;;;;;;;1.50;1.10;;;18.00;99.90;;;;;;5032349;28;20458;-73
2022/07/29 03:20:19;;;;;;;1.70;1.10;;;18.00;99.90;;;;;;5046008;28;20453;-73
2022/07/29 03:22:48;;;;;;;1.70;0.90;;;18.10;99.90;;;;;;5042833;28;20422;-73
2022/07/29 03:25:15;;;;;;;2.33;1.63;;;18.00;99.90;;;;;;5032905;28;20439;-72
2022/07/29 03:27:41;;;;;;;3.57;1.53;;;18.00;99.90;;;;;;5052227;28;20795;-73
2022/07/29 03:30:07;;;;;;;1.97;1.03;;;18.00;99.90;;;;;;5039781;28;20495;-73
2022/07/29 03:32:33;;;;;;;1.40;1.03;;;18.00;99.90;;;;;;5032265;28;20413;-71
2022/07/29 03:34:59;;;;;;;2.83;1.47;;;18.00;99.90;;;;;;5031890;28;20403;-71
2022/07/29 03:37:25;;;;;;;1.57;1.40;;;17.90;99.90;;;;;;5032110;28;20302;-71
2022/07/29 03:39:52;;;;;;;1.20;1.03;;;17.90;99.90;;;;;;5032068;28;20198;-71
2022/07/29 03:42:19;;;;;;;4.27;1.73;;;17.90;99.90;;;;;;5042605;28;20178;-71
2022/07/29 03:44:48;;;;;;;4.30;1.90;;;17.90;99.90;;;;;;5051672;28;20405;-71
2022/07/29 03:47:15;;;;;;;3.37;1.60;;;17.90;99.90;;;;;;5051916;28;20507;-71
2022/07/29 03:49:44;;;;;;;2.80;1.70;;;17.90;99.90;;;;;;5051830;28;20408;-71
2022/07/29 03:52:09;;;;;;;1.57;1.30;;;17.90;99.90;;;;;;5051630;28;20436;-71
2022/07/29 03:54:35;;;;;;;2.90;1.30;;;17.90;99.90;;;;;;5038106;28;20414;-71
2022/07/29 03:57:03;;;;;;;3.90;1.20;;;17.90;99.90;;;;;;5031921;28;20174;-71
2022/07/29 03:59:32;;;;;;;1.60;1.40;;;17.90;99.90;;;;;;5031976;28;20168;-72
2022/07/29 04:01:59;;;;;;;3.40;1.67;;;17.90;99.90;;;;;;5031898;28;20903;-72
2022/07/29 04:04:25;;;;;;;2.43;1.00;;;18.00;99.90;;;;;;5042831;28;20417;-73
2022/07/29 04:06:50;;;;;;;1.40;1.20;;;18.00;99.90;;;;;;5051253;28;20833;-73
2022/07/29 04:09:16;;;;;;;2.03;1.37;;;18.00;99.90;;;;;;5051718;28;20405;-73
2022/07/29 04:11:42;;;;;;;2.30;1.53;;;18.00;99.90;;;;;;5051693;28;20187;-73
2022/07/29 04:14:08;;;;;;;3.00;1.70;;;18.00;99.90;;;;;;5051664;28;20256;-73
2022/07/29 04:16:33;;;;;;;1.63;1.30;;;18.00;99.90;;;;;;5038236;28;20864;-73
2022/07/29 04:18:59;;;;;;;1.70;1.30;;;18.00;99.90;;;;;;5031703;28;20259;-73
2022/07/29 04:21:24;;;;;;;2.20;1.60;;;18.00;99.90;;;;;;5036305;28;20594;-72
2022/07/29 04:23:50;;;;;;;1.40;1.30;;;17.90;99.90;;;;;;5051583;28;20543;-73
2022/07/29 04:26:20;;;;;;;1.77;1.27;;;17.90;99.90;;;;;;5041042;28;20175;-73
2022/07/29 04:28:46;;;;;;;3.77;1.60;;;17.90;99.90;;;;;;5031518;28;20249;-73
2022/07/29 04:31:13;;;;;;;4.30;2.70;;;17.90;99.90;;;;;;5031433;28;20437;-73
2022/07/29 04:33:39;;;;;;;1.73;1.43;;;17.90;99.90;;;;;;5031636;28;20524;-73
2022/07/29 04:36:05;;;;;;;9.77;1.63;;;17.90;99.90;;;;;;5033410;28;20413;-73
2022/07/29 04:38:31;;;;;;;2.70;1.20;;;17.80;99.90;;;;;;5045331;28;20506;-73
2022/07/29 04:40:56;;;;;;;1.20;1.10;;;17.80;99.90;;;;;;5055166;28;20190;-73
2022/07/29 04:43:22;;;;;;;7.80;4.53;;;17.80;99.90;;;;;;5055329;28;20205;-72
2022/07/29 04:45:47;;;;;;;2.00;1.57;;;17.80;99.90;;;;;;5054636;28;20175;-73
2022/07/29 04:48:13;;;;;;;1.40;1.27;;;17.90;99.90;;;;;;5054925;28;20205;-73
2022/07/29 04:50:39;;;;;;;3.17;1.60;;;17.80;99.90;;;;;;5038400;28;20617;-73
2022/07/29 04:53:05;;;;;;;1.67;1.30;;;17.80;99.90;;;;;;5035014;28;20191;-73
2022/07/29 04:55:31;;;;;;;2.03;1.40;;;17.90;99.90;;;;;;5034786;28;20406;-73
2022/07/29 04:57:56;;;;;;;5.53;2.07;;;17.90;99.90;;;;;;5035007;28;20182;-73
2022/07/29 05:00:23;;;;;;;1.37;1.07;;;17.90;99.90;;;;;;5047745;28;20250;-73
2022/07/29 05:02:49;;;;;;;1.60;1.43;;;17.90;99.90;;;;;;5054820;28;20686;-72
2022/07/29 05:05:14;;;;;;;2.77;2.03;;;17.90;99.90;;;;;;5054485;28;20421;-73
2022/07/29 05:07:40;;;;;;;2.00;1.40;;;17.90;99.90;;;;;;5054660;28;20453;-73
2022/07/29 05:10:06;;;;;;;3.70;1.77;;;17.90;99.90;;;;;;5054786;28;20195;-73
2022/07/29 05:12:32;;;;;;;2.27;1.33;;;18.00;99.90;;;;;;5037867;28;20611;-73
2022/07/29 05:14:57;;;;;;;1.63;1.53;;;18.10;99.90;;;;;;5034406;28;20441;-73
2022/07/29 05:17:23;;;;;;;5.97;1.97;;;18.10;99.90;;;;;;5041482;28;20579;-73
2022/07/29 05:19:51;;;;;;;2.10;1.83;;;18.10;99.90;;;;;;5054414;28;20213;-73
2022/07/29 05:22:17;;;;;;;1.73;1.27;;;18.10;99.90;;;;;;5054186;28;20167;-73
2022/07/29 05:24:43;;;;;;;1.97;1.77;;;18.20;99.90;;;;;;5029683;28;20418;-73
2022/07/29 05:27:09;;;;;;;2.17;1.90;;;18.30;99.90;;;;;;5014606;28;20419;-73
2022/07/29 05:29:34;;;;;;;1.73;1.30;;;18.40;99.90;;;;;;5014621;28;20172;-73
2022/07/29 05:32:00;;;;;;;2.33;1.57;;;18.40;99.90;;;;;;5014587;28;20889;-73
2022/07/29 05:34:26;;;;;;;2.63;1.67;;;18.50;99.90;;;;;;5030893;28;20172;-73
2022/07/29 05:36:51;;;;;;;3.57;1.80;;;18.50;99.90;;;;;;5054260;28;20171;-73
2022/07/29 05:39:17;;;;;;;1.90;1.80;;;18.50;99.90;;;;;;5054199;28;20167;-73
2022/07/29 05:41:42;;;;;;;12.20;1.80;;;18.60;99.90;;;;;;5053758;28;20703;-73
2022/07/29 05:44:08;;;;;;;2.77;1.80;;;18.70;99.90;;;;;;5054004;28;20167;-73
2022/07/29 05:46:33;;;;;;;2.40;1.77;;;18.70;99.90;;;;;;5037832;28;20652;-73
2022/07/29 05:48:59;;;;;;;3.17;1.83;;;18.80;99.90;;;;;;5053829;28;20201;-73
2022/07/29 05:51:24;;;;;;;2.00;1.80;;;18.90;99.90;;;;;;5053823;28;20199;-73
2022/07/29 05:53:50;;;;;;;3.17;1.80;;;18.90;99.90;;;;;;5053884;28;20163;-73
2022/07/29 05:56:15;;;;;;;2.57;1.97;;;19.00;99.90;;;;;;5053259;28;20167;-73
2022/07/29 05:58:41;;;;;;;2.83;2.03;;;19.10;99.90;;;;;;5033857;28;20183;-73
2022/07/29 06:01:06;;;;;;;3.03;2.73;;;19.10;99.90;;;;;;5032461;28;20218;-73
2022/07/29 06:03:32;;;;;;;5.90;2.10;;;19.10;99.90;;;;;;5033780;28;20171;-73
2022/07/29 06:05:57;;;;;;;3.10;1.80;;;19.20;99.90;;;;;;5059578;28;20185;-73
2022/07/29 06:08:23;;;;;;;1.70;1.60;;;19.20;99.90;;;;;;5050626;28;20194;-73
2022/07/29 06:10:49;;;;;;;3.53;1.87;;;19.20;99.90;;;;;;5033574;28;20188;-73
2022/07/29 06:13:15;;;;;;;2.20;1.80;;;19.20;99.90;;;;;;5033554;28;20213;-72
2022/07/29 06:15:42;;;;;;;6.13;1.60;;;19.10;99.90;;;;;;5033302;28;20168;-73
2022/07/29 06:18:09;;;;;;;3.30;1.90;;;19.00;99.90;;;;;;5042155;28;20417;-73
2022/07/29 06:20:35;;;;;;;2.10;1.47;;;19.00;99.90;;;;;;5037888;28;20457;-73
2022/07/29 06:23:01;;;;;;;2.43;1.67;;;18.90;99.90;;;;;;5053427;28;20406;-73
2022/07/29 06:25:30;;;;;;;1.87;1.47;;;18.90;99.90;;;;;;5052981;28;20907;-72
2022/07/29 06:27:56;;;;;;;2.33;1.60;;;18.90;99.90;;;;;;5053111;28;20452;-73
2022/07/29 06:30:22;;;;;;;1.77;1.53;;;18.90;99.90;;;;;;5052006;28;20938;-73
2022/07/29 06:32:47;;;;;;;6.40;1.70;;;18.90;99.90;;;;;;5049066;28;20430;-73
2022/07/29 06:35:13;;;;;;;2.77;1.70;;;18.80;99.90;;;;;;5032868;28;20187;-73
2022/07/29 06:37:38;;;;;;;1.90;1.70;;;18.80;99.90;;;;;;5033099;28;20537;-73
2022/07/29 06:42:48;;;;;;;1.70;1.60;;;18.80;99.90;;;;;;5033332;28;20198;-73
2022/07/29 06:45:14;;;;;;;4.03;2.67;;;18.80;99.90;;;;;;5041844;28;20426;-73
2022/07/29 06:47:39;;;;;;;1.87;1.43;;;18.80;99.90;;;;;;5052359;28;20198;-73
2022/07/29 06:50:06;;;;;;;2.97;1.97;;;18.80;99.90;;;;;;5052403;28;20191;-73
2022/07/29 06:52:31;;;;;;;2.20;1.87;;;18.80;99.90;;;;;;5052610;28;20209;-73
2022/07/29 06:54:57;;;;;;;3.70;2.17;;;18.70;99.90;;;;;;5052510;28;20433;-73
2022/07/29 06:57:22;;;;;;;9.90;2.03;;;18.70;99.90;;;;;;5042257;28;20278;-73
2022/07/29 06:59:48;;;;;;;3.53;1.93;;;18.70;99.90;;;;;;5032175;28;20635;-73
2022/07/29 07:02:13;;;;;;;8.20;2.20;;;18.80;99.90;;;;;;5032632;28;20241;-73
2022/07/29 07:04:39;;;;;;;2.43;1.90;;;18.80;99.90;;;;;;5034059;28;20160;-73
2022/07/29 07:07:05;;;;;;;3.13;1.80;;;19.00;99.90;;;;;;5052552;28;20210;-73
2022/07/29 07:09:30;;;;;;;5.50;2.90;;;19.10;99.90;;;;;;5049581;28;20214;-73
2022/07/29 07:11:56;;;;;;;3.47;1.83;;;19.20;99.90;;;;;;5052013;28;20187;-73
2022/07/29 07:14:21;;;;;;;2.37;1.73;;;19.30;99.90;;;;;;5052066;28;20177;-74
2022/07/29 07:16:47;;;;;;;4.33;2.37;;;19.40;99.90;;;;;;5052333;28;20171;-73
2022/07/29 07:19:12;;;;;;;3.47;2.00;;;19.50;99.90;;;;;;5052736;28;20187;-73
2022/07/29 07:21:38;;;;;;;2.63;2.13;;;19.60;99.90;;;;;;5034901;28;20192;-73
2022/07/29 07:24:04;;;;;;;3.50;2.67;;;19.80;99.90;;;;;;5032330;28;20199;-74
2022/07/29 07:26:30;;;;;;;3.83;2.20;;;19.90;99.90;;;;;;5032044;28;20178;-73
2022/07/29 07:28:55;;;;;;;1.70;1.60;;;20.10;99.90;;;;;;5032184;28;20446;-73
2022/07/29 07:31:21;;;;;;;2.20;2.00;;;20.30;99.90;;;;;;5032192;28;20661;-73
2022/07/29 07:33:46;;;;;;;3.83;1.67;;;20.30;99.90;;;;;;5049559;28;20178;-73
2022/07/29 07:36:12;;;;;;;2.93;2.33;;;20.20;99.90;;;;;;5051893;28;20159;-73
2022/07/29 07:38:37;;;;;;;2.57;1.80;;;20.00;99.90;;;;;;5041732;28;20722;-73
2022/07/29 07:41:03;;;;;;;5.73;2.40;;;19.90;99.90;;;;;;5032041;28;20719;-73
2022/07/29 07:43:29;;;;;;;3.10;2.50;;;19.80;99.90;;;;;;5032869;28;20225;-73
2022/07/29 07:45:54;;;;;;;6.37;2.00;;;19.80;99.90;;;;;;5051918;28;20198;-73
2022/07/29 07:48:20;;;;;;;2.80;2.00;;;19.80;99.90;;;;;;5051932;28;20695;-74
2022/07/29 07:50:45;;;;;;;3.20;2.70;;;19.70;99.90;;;;;;5051888;28;20197;-73
2022/07/29 07:53:11;;;;;;;2.27;2.07;;;19.70;99.90;;;;;;5051797;28;20175;-73
2022/07/29 07:55:41;;;;;;;3.57;2.30;;;19.70;99.90;;;;;;5048431;28;20220;-73
2022/07/29 07:58:07;;;;;;;2.13;1.93;;;19.70;99.90;;;;;;5031877;28;20225;-73
2022/07/29 08:00:33;;;;;;;2.13;1.93;;;19.80;99.90;;;;;;5031706;28;20430;-73
2022/07/29 08:02:59;;;;;;;3.53;2.73;;;19.70;99.90;;;;;;5031841;28;20413;-73
2022/07/29 08:05:24;;;;;;;2.30;1.63;;;19.80;99.90;;;;;;5041517;28;20208;-73
2022/07/29 08:07:50;;;;;;;4.27;2.07;;;19.80;99.90;;;;;;5050818;28;20195;-73
2022/07/29 08:10:51;;;;;;;2.50;2.23;;;19.70;99.90;;;;;;5034505;28;20201;-73
2022/07/29 08:13:07;;;;;;;2.50;1.73;;;19.80;99.90;;;;;;5035717;28;20199;-73
2022/07/29 08:15:33;;;;;;;4.53;2.40;;;19.80;99.90;;;;;;5034096;28;20422;-73
2022/07/29 08:17:58;;;;;;;4.60;2.33;;;19.90;99.90;;;;;;5035727;28;20434;-73
2022/07/29 08:20:24;;;;;;;8.83;2.87;;;20.00;99.90;;;;;;5040484;28;20186;-73
2022/07/29 08:22:50;;;;;;;3.83;1.93;;;20.10;99.90;;;;;;5055624;28;20639;-73
2022/07/29 08:25:17;;;;;;;3.83;1.97;;;20.20;99.90;;;;;;5055269;28;20170;-73
2022/07/29 08:27:43;;;;;;;4.03;2.43;;;20.30;99.90;;;;;;5055541;28;20285;-73
2022/07/29 08:30:09;;;;;;;2.63;2.43;;;20.40;99.90;;;;;;5055453;28;20448;-73
2022/07/29 08:32:35;;;;;;;2.90;2.10;;;20.40;99.90;;;;;;5049634;28;20174;-73
2022/07/29 08:35:01;;;;;;;2.13;1.83;;;20.50;99.90;;;;;;5035362;28;20405;-74
2022/07/29 08:37:26;;;;;;;3.60;2.60;;;20.50;99.90;;;;;;5035175;28;20409;-73
2022/07/29 08:39:52;;;;;;;2.67;2.30;;;20.60;99.90;;;;;;5035353;28;20193;-73
2022/07/29 08:42:18;;;;;;;3.27;2.60;;;20.70;99.90;;;;;;5035364;28;20258;-73
2022/07/29 08:44:43;;;;;;;2.83;2.23;;;20.80;99.90;;;;;;5048109;28;20186;-73
2022/07/29 08:47:10;;;;;;;3.70;2.10;;;20.90;99.90;;;;;;5055082;28;20680;-73
2022/07/29 08:49:35;;;;;;;4.93;2.20;;;21.10;99.90;;;;;;5055174;28;20198;-73
2022/07/29 08:52:02;;;;;;;4.33;2.20;;;21.10;99.90;;;;;;5054996;28;20453;-73
2022/07/29 08:54:29;;;;;;;2.80;2.30;;;21.20;99.90;;;;;;5043562;28;20190;-74
2022/07/29 08:56:55;;;;;;;4.50;2.23;;;21.10;99.90;;;;;;5035351;28;20394;-73
2022/07/29 08:59:24;;;;;;;3.33;2.17;;;21.20;99.90;;;;;;5034925;28;20461;-73
2022/07/29 09:01:53;;;;;;;1.97;1.87;;;21.20;99.90;;;;;;5034970;28;20807;-73
2022/07/29 09:04:19;;;;;;;2.10;1.90;;;21.20;99.90;;;;;;5034654;28;20414;-74
2022/07/29 09:06:47;;;;;;;3.03;1.70;;;21.30;99.90;;;;;;5048109;28;20425;-73
2022/07/29 09:09:13;;;;;;;3.63;3.03;;;21.30;99.90;;;;;;5054536;28;20461;-73
2022/07/29 09:11:40;;;;;;;2.23;2.00;;;21.50;99.90;;;;;;5054698;28;20516;-74
2022/07/29 09:14:07;;;;;;;2.50;2.03;;;21.70;99.90;;;;;;5054606;28;20539;-73
2022/07/29 09:17:08;;;;;;;4.93;3.40;;;22.00;99.90;;;;;;5054564;28;20741;-74
2022/07/29 09:19:36;;;;;;;4.40;2.70;;;22.40;99.90;;;;;;4977635;28;20420;-74
2022/07/29 09:22:04;;;;;;;6.20;2.10;;;23.00;99.90;;;;;;5034626;28;20500;-74
2022/07/29 09:24:37;;;;;;;3.50;2.10;;;24.10;99.90;;;;;;5052864;28;20416;-74
2022/07/29 09:27:07;;;;;;;2.70;2.00;;;25.20;99.90;;;;;;5054399;28;20500;-74
2022/07/29 09:29:33;;;;;;;2.63;2.03;;;26.10;99.90;;;;;;5053819;28;20401;-74
2022/07/29 09:31:58;;;;;;;3.10;2.40;;;26.80;99.90;;;;;;5034379;28;20505;-74
2022/07/29 09:34:29;;;;;;;3.50;2.17;;;27.40;99.90;;;;;;5034050;28;20167;-74
2022/07/29 09:36:55;;;;;;;2.77;1.93;;;27.90;99.90;;;;;;5034422;28;20576;-74
2022/07/29 09:39:45;;;;;;;2.20;2.00;;;28.30;99.90;;;;;;5034206;28;20493;-74
2022/07/29 09:42:11;;;;;;;4.50;2.53;;;28.80;99.90;;;;;;5038355;28;20171;-74
2022/07/29 09:44:48;;;;;;;2.13;1.93;;;29.10;99.90;;;;;;5053830;28;20401;-74
2022/07/29 09:47:15;;;;;;;2.47;2.03;;;29.20;99.70;;;;;;5054057;28;20397;-74
2022/07/29 09:49:58;;;;;;;2.70;2.50;;;29.20;96.20;;;;;;5037158;28;20418;-74
2022/07/29 09:52:25;;;;;;;3.47;2.37;;;29.20;94.00;;;;;;5033943;28;20436;-74
2022/07/29 09:54:51;;;;;;;3.80;2.30;;;29.00;93.80;;;;;;5034887;28;20418;-74
2022/07/29 09:57:28;;;;;;;3.53;2.30;;;28.90;94.60;;;;;;5033957;28;20830;-74
2022/07/29 09:59:58;;;;;;;2.17;1.97;;;28.80;95.00;;;;;;5033855;28;20437;-74
2022/07/29 10:02:29;;;;;;;5.30;1.87;;;28.50;95.80;;;;;;5033868;28;20485;-74
2022/07/29 10:04:55;;;;;;;3.97;2.53;;;28.20;96.30;;;;;;5049621;28;20417;-74
2022/07/29 10:07:21;;;;;;;4.03;2.73;;;28.00;96.20;;;;;;5053306;28;20453;-74
2022/07/29 10:09:56;;;;;;;6.53;2.60;;;27.70;97.10;;;;;;5053321;28;20170;-74
2022/07/29 10:12:22;;;;;;;2.33;2.13;;;27.50;96.30;;;;;;5053638;28;20166;-74
2022/07/29 10:14:48;;;;;;;5.27;2.50;;;27.50;98.40;;;;;;5053211;28;20405;-74
2022/07/29 10:17:15;;;;;;;4.00;2.60;;;27.50;99.90;;;;;;5036431;28;20981;-75
2022/07/29 10:19:42;;;;;;;3.60;2.30;;;27.90;99.90;;;;;;5033420;28;20398;-74
2022/07/29 10:22:09;;;;;;;2.13;1.93;;;28.40;99.30;;;;;;5033492;28;20407;-74
2022/07/29 10:24:37;;;;;;;2.90;2.07;;;29.10;99.30;;;;;;5041489;28;20478;-73
2022/07/29 10:27:04;;;;;;;3.67;2.40;;;30.10;95.10;;;;;;5051861;28;20903;-73
2022/07/29 10:29:32;;;;;;;2.80;2.30;;;31.20;91.50;;;;;;5033518;28;20936;-73
2022/07/29 10:32:07;;;;;;;5.13;2.23;;;31.80;88.30;;;;;;5033016;28;20430;-73
2022/07/29 10:35:04;;;;;;;2.30;2.10;;;32.40;79.40;;;;;;5032486;28;20470;-73
2022/07/29 10:37:52;;;;;;;2.53;2.20;;;33.40;68.90;;;;;;5033201;28;20402;-73
2022/07/29 10:43:32;;;;;;;3.07;2.40;;;36.40;59.20;;;;;;5050800;28;20895;-73
2022/07/29 10:46:00;;;;;;;2.43;2.23;;;37.80;54.70;;;;;;5052676;28;20416;-72
2022/07/29 10:48:26;;;;;;;2.50;2.30;;;38.30;50.20;;;;;;5052776;28;20791;-73
2022/07/29 10:50:55;;;;;;;5.80;2.40;;;38.50;47.60;;;;;;5052029;28;20510;-73
2022/07/29 10:53:48;;;;;;;3.43;2.37;;;39.00;47.50;;;;;;5069384;28;20518;-75
2022/07/29 10:56:40;;;;;;;4.13;2.53;;;40.40;45.00;;;;;;5068742;28;20419;-75
2022/07/29 10:59:20;;;;;;;2.57;2.37;;;41.40;43.90;;;;;;5067849;28;20420;-75
2022/07/29 11:01:47;;;;;;;4.07;2.43;;;42.30;41.10;;;;;;5050729;28;20795;-75
2022/07/29 11:04:13;;;;;;;2.33;2.13;;;43.20;39.30;;;;;;5047625;28;20938;-75
2022/07/29 11:06:58;;;;;;;2.50;2.20;;;43.80;38.50;;;;;;5049215;28;20406;-75
2022/07/29 11:09:23;;;;;;;2.23;2.03;;;44.70;36.90;;;;;;5049195;28;20397;-75
2022/07/29 11:11:49;;;;;;;2.63;2.33;;;45.10;36.30;;;;;;5048640;28;20469;-75
2022/07/29 11:14:16;;;;;;;2.77;2.37;;;45.30;34.30;;;;;;5048616;28;20225;-75
2022/07/29 11:17:00;;;;;;;2.30;2.03;;;45.40;33.50;;;;;;5048784;28;20167;-75
2022/07/29 11:19:26;;;;;;;3.77;2.47;;;45.30;33.10;;;;;;5048866;28;20723;-75
2022/07/29 11:21:52;;;;;;;3.00;2.30;;;45.20;32.50;;;;;;5048878;28;20420;-75
2022/07/29 11:24:27;;;;;;;2.57;2.20;;;44.80;32.70;;;;;;5048544;28;20691;-75
2022/07/29 11:27:12;;;;;;;3.40;2.10;;;44.40;33.50;;;;;;5048370;28;20441;-76
2022/07/29 11:29:41;;;;;;;2.80;2.60;;;44.70;33.30;;;;;;5048725;28;20783;-75
2022/07/29 11:32:15;;;;;;;3.97;2.13;;;44.50;33.40;;;;;;5047945;28;20917;-75
2022/07/29 11:34:41;;;;;;;2.60;2.40;;;44.50;33.40;;;;;;5048444;28;20380;-75
2022/07/29 11:37:06;;;;;;;1.87;1.77;;;43.80;32.40;;;;;;5048613;28;20369;-75
2022/07/29 11:39:40;;;;;;;2.50;2.00;;;43.30;33.00;;;;;;5045922;28;20400;-75
2022/07/29 11:42:21;;;;;;;2.50;2.20;;;42.80;33.10;;;;;;5047296;28;20244;-75
2022/07/29 11:45:09;;;;;;;2.20;2.00;;;42.10;34.40;;;;;;5047186;28;20741;-74
2022/07/29 11:47:40;;;;;;;1.97;1.77;;;41.50;34.30;;;;;;5047982;28;20401;-74
2022/07/29 11:50:11;;;;;;;2.27;1.93;;;41.20;34.40;;;;;;5048008;28;20885;-74
2022/07/29 11:52:42;;;;;;;2.83;2.17;;;40.70;35.20;;;;;;5048092;28;20461;-74
2022/07/29 11:55:09;;;;;;;2.17;1.97;;;40.20;35.60;;;;;;5047572;28;20461;-74
2022/07/29 11:57:35;;;;;;;2.20;2.00;;;39.30;36.00;;;;;;5047505;28;20406;-74
2022/07/29 12:00:03;;;;;;;2.40;1.77;;;38.80;36.50;;;;;;5047858;28;20440;-74
2022/07/29 12:02:42;;;;;;;2.40;2.20;;;38.80;37.70;;;;;;5048010;28;20569;-74
2022/07/29 12:05:10;;;;;;;1.93;1.73;;;38.90;36.80;;;;;;5033799;28;20423;-74
2022/07/29 12:07:37;;;;;;;2.50;2.30;;;39.20;37.70;;;;;;5014692;28;20430;-74
2022/07/29 12:10:04;;;;;;;2.47;2.00;;;40.00;36.70;;;;;;5033607;28;20470;-74
2022/07/29 12:12:29;;;;;;;6.00;2.00;;;40.70;35.30;;;;;;5034152;28;20492;-74
2022/07/29 12:14:55;;;;;;;4.23;2.20;;;40.80;35.10;;;;;;5033877;28;20440;-74
2022/07/29 12:17:28;;;;;;;2.50;2.30;;;40.80;34.20;;;;;;5033162;28;20178;-74
2022/07/29 12:19:54;;;;;;;2.27;1.83;;;40.60;35.70;;;;;;5033763;28;20188;-74
2022/07/29 12:22:27;;;;;;;3.30;2.00;;;40.60;35.10;;;;;;5034006;28;20508;-74
2022/07/29 12:24:54;;;;;;;1.70;1.60;;;40.30;35.10;;;;;;5033853;28;20785;-74
2022/07/29 12:27:20;;;;;;;4.93;1.90;;;40.10;36.50;;;;;;5033919;28;20418;-74
2022/07/29 12:30:03;;;;;;;5.30;2.07;;;39.70;35.90;;;;;;5033651;28;20476;-74
2022/07/29 12:32:41;;;;;;;4.00;2.67;;;39.30;35.70;;;;;;5033751;28;20198;-74
2022/07/29 12:35:10;;;;;;;3.33;1.77;;;38.60;36.10;;;;;;5013924;28;20407;-74
2022/07/29 12:37:39;;;;;;;2.20;2.00;;;38.20;37.50;;;;;;5014124;28;20414;-74
2022/07/29 12:40:07;;;;;;;2.77;1.77;;;38.60;37.80;;;;;;5014172;28;20518;-74
2022/07/29 12:42:33;;;;;;;2.07;1.40;;;39.60;37.70;;;;;;5014170;28;20378;-74
2022/07/29 12:44:59;;;;;;;2.90;1.87;;;40.40;36.60;;;;;;5020052;28;20397;-74
2022/07/29 12:47:25;;;;;;;2.20;2.10;;;41.00;35.60;;;;;;5032240;28;20414;-74
2022/07/29 12:50:06;;;;;;;4.80;1.70;;;41.70;34.40;;;;;;5033737;28;20168;-75
2022/07/29 12:52:34;;;;;;;4.93;2.00;;;42.10;34.30;;;;;;5033494;28;20207;-75
2022/07/29 12:55:00;;;;;;;2.33;2.13;;;42.20;32.70;;;;;;5033002;28;20955;-75
2022/07/29 12:57:26;;;;;;;2.63;2.43;;;42.50;32.90;;;;;;5033670;28;20402;-75
2022/07/29 13:00:04;;;;;;;4.70;3.10;;;42.20;33.30;;;;;;5033137;28;20750;-75